Time;durP1;ratioP1;P1;durP2;ratioP2;P2;SDS_P1;SDS_P2;PMS_P1;PMS_P2;Temp;Humidity;BMP_temperature;BMP_pressure;BME280_temperature;BME280_humidity;BME280_pressure;Samples;Min_cycle;Max_cycle;Signal;HPM_P1;HPM_P2
2021/12/10 00:02:34;;;;;;;;;;;;;;;6.10;71.62;98167.66;5052497;28;19925;-61
2021/12/10 00:05:01;;;;;;;;;;;;;;;6.07;71.64;98154.84;5052409;28;19925;-61
2021/12/10 00:07:28;;;;;;;;;;;;;;;6.06;71.65;98157.53;5052517;28;19924;-61
2021/12/10 00:09:58;;;;;;;;;;;;;;;6.05;71.68;98154.06;5034320;28;19924;-61
2021/12/10 00:12:27;;;;;;;;;;;;;;;6.03;71.61;98152.47;5051185;28;19920;-61
2021/12/10 00:14:55;;;;;;;;;;;;;;;6.02;71.63;98141.16;5052291;28;19924;-60
2021/12/10 00:17:23;;;;;;;;;;;;;;;6.00;71.53;98136.06;5050947;28;19929;-60
2021/12/10 00:19:52;;;;;;;;;;;;;;;6.00;71.61;98130.00;5050866;28;19921;-61
2021/12/10 00:22:21;;;;;;;;;;;;;;;5.98;71.26;98134.50;5051164;28;19943;-61
2021/12/10 00:24:49;;;;;;;;;;;;;;;5.95;71.20;98125.06;5052063;28;19920;-60
2021/12/10 00:27:26;;;;;;;;;;;;;;;5.94;71.40;98131.22;5051292;28;19947;-60
2021/12/10 00:29:53;;;;;;;;;;;;;;;5.93;71.48;98123.50;5051767;28;20351;-62
2021/12/10 00:32:31;;;;;;;;;;;;;;;5.92;71.65;98116.59;5051956;28;19920;-60
2021/12/10 00:34:58;;;;;;;;;;;;;;;5.91;71.11;98115.75;5051829;28;19920;-60
2021/12/10 00:37:26;;;;;;;;;;;;;;;5.91;71.52;98117.53;5051814;28;20274;-61
2021/12/10 00:39:56;;;;;;;;;;;;;;;5.90;71.58;98106.25;5051671;28;19920;-60
2021/12/10 00:42:31;;;;;;;;;;;;;;;5.90;71.40;98097.59;5051724;28;19978;-61
2021/12/10 00:44:59;;;;;;;;;;;;;;;5.90;71.71;98098.41;5050671;28;19925;-60
2021/12/10 00:47:26;;;;;;;;;;;;;;;5.90;71.88;98092.38;5052019;28;20399;-61
2021/12/10 00:49:53;;;;;;;;;;;;;;;5.90;71.59;98092.38;5051385;28;20014;-62
2021/12/10 00:52:20;;;;;;;;;;;;;;;5.89;71.54;98081.06;5051657;28;19920;-60
2021/12/10 00:54:47;;;;;;;;;;;;;;;5.90;71.68;98094.97;5050231;28;19925;-63
2021/12/10 00:57:14;;;;;;;;;;;;;;;5.90;71.53;98087.16;5050277;28;19928;-59
2021/12/10 00:59:41;;;;;;;;;;;;;;;5.88;71.81;98089.84;5051510;28;20285;-62
2021/12/10 01:02:11;;;;;;;;;;;;;;;5.89;71.76;98085.44;5051497;28;19924;-61
2021/12/10 01:04:39;;;;;;;;;;;;;;;5.88;71.97;98076.78;5051451;28;19940;-60
2021/12/10 01:07:07;;;;;;;;;;;;;;;5.87;71.69;98075.94;5051173;28;19974;-61
2021/12/10 01:09:35;;;;;;;;;;;;;;;5.86;71.63;98071.66;5051058;28;19946;-61
2021/12/10 01:12:05;;;;;;;;;;;;;;;5.83;71.40;98077.06;5051318;28;19990;-61
2021/12/10 01:14:54;;;;;;;;;;;;;;;5.82;71.47;98069.34;5050075;28;19931;-62
2021/12/10 01:25:53;;;;;;;;;;;;;;;5.68;72.19;98046.75;5051406;28;19921;-60
2021/12/10 01:28:20;;;;;;;;;;;;;;;5.68;72.15;98047.56;5051200;28;19924;-61
2021/12/10 01:30:47;;;;;;;;;;;;;;;5.69;72.42;98043.19;5051175;28;19925;-61
2021/12/10 01:33:16;;;;;;;;;;;;;;;5.70;72.61;98043.09;5051018;28;19925;-62
2021/12/10 01:35:46;;;;;;;;;;;;;;;5.73;72.46;98047.28;5049559;28;20274;-60
2021/12/10 01:38:13;;;;;;;;;;;;;;;5.75;72.62;98032.34;5051105;28;19925;-61
2021/12/10 01:40:44;;;;;;;;;;;;;;;5.77;72.55;98034.88;5050804;28;19936;-61
2021/12/10 01:43:22;;;;;;;;;;;;;;;5.77;72.54;98034.88;5051185;28;19927;-60
2021/12/10 01:45:50;;;;;;;;;;;;;;;5.79;72.39;98033.81;5051126;28;19932;-60
2021/12/10 01:48:19;;;;;;;;;;;;;;;5.80;72.42;98038.09;5049606;28;19924;-61
2021/12/10 01:50:46;;;;;;;;;;;;;;;5.81;72.36;98034.56;5049362;28;19931;-61
2021/12/10 01:53:14;;;;;;;;;;;;;;;5.82;72.36;98031.03;5050937;28;19924;-61
2021/12/10 01:55:42;;;;;;;;;;;;;;;5.84;72.53;98036.97;5050911;28;19924;-61
2021/12/10 01:58:12;;;;;;;;;;;;;;;5.86;72.24;98039.47;5050539;28;19951;-62
2021/12/10 02:00:41;;;;;;;;;;;;;;;5.85;72.31;98030.84;5051038;28;20316;-61
2021/12/10 02:03:08;;;;;;;;;;;;;;;5.87;72.37;98033.34;5050683;28;19927;-60
2021/12/10 02:05:35;;;;;;;;;;;;;;;5.87;72.21;98031.56;5050569;28;19928;-62
2021/12/10 02:08:02;;;;;;;;;;;;;;;5.89;72.49;98028.00;5049616;28;19928;-61
2021/12/10 02:10:29;;;;;;;;;;;;;;;5.91;72.29;98020.91;5050452;28;20385;-61
2021/12/10 02:12:56;;;;;;;;;;;;;;;5.92;72.43;98012.97;5050633;28;19925;-61
2021/12/10 02:15:26;;;;;;;;;;;;;;;5.95;72.52;98017.16;5050550;28;19932;-61
2021/12/10 02:17:56;;;;;;;;;;;;;;;5.97;72.50;98017.88;5049223;28;19921;-61
2021/12/10 02:20:36;;;;;;;;;;;;;;;5.98;72.33;98012.56;5050374;28;19921;-61
2021/12/10 02:23:04;;;;;;;;;;;;;;;6.00;72.65;98013.31;5053200;28;19983;-60
2021/12/10 02:25:36;;;;;;;;;;;;;;;6.03;72.57;98014.91;5054480;28;19970;-62
2021/12/10 02:28:03;;;;;;;;;;;;;;;6.05;72.60;98012.22;5053125;28;20463;-60
2021/12/10 02:30:30;;;;;;;;;;;;;;;6.08;72.61;98001.53;5054106;28;19921;-60
2021/12/10 02:32:57;;;;;;;;;;;;;;;6.10;72.71;97990.03;5053977;28;19928;-61
2021/12/10 02:35:24;;;;;;;;;;;;;;;6.13;72.46;97983.75;5054043;28;19931;-61
2021/12/10 02:37:50;;;;;;;;;;;;;;;6.15;72.68;97981.06;5054259;28;19921;-61
2021/12/10 02:40:19;;;;;;;;;;;;;;;6.16;72.59;97975.72;5052817;28;19978;-62
2021/12/10 02:42:46;;;;;;;;;;;;;;;6.18;72.18;97978.25;5054114;28;19928;-61
2021/12/10 02:45:16;;;;;;;;;;;;;;;6.17;72.39;97963.50;5053932;28;20351;-62
2021/12/10 02:47:44;;;;;;;;;;;;;;;6.17;72.16;97968.75;5054131;28;19928;-61
2021/12/10 02:50:11;;;;;;;;;;;;;;;6.17;72.13;97963.50;5053540;28;19924;-60
2021/12/10 02:52:38;;;;;;;;;;;;;;;6.18;72.02;97970.41;5052628;28;19966;-61
2021/12/10 02:55:05;;;;;;;;;;;;;;;6.15;72.28;97966.22;5053665;28;20430;-61
2021/12/10 02:57:32;;;;;;;;;;;;;;;6.15;72.11;97957.53;5052524;28;19921;-62
2021/12/10 02:59:58;;;;;;;;;;;;;;;6.16;72.36;97959.25;5053539;28;20344;-60
2021/12/10 03:02:26;;;;;;;;;;;;;;;6.16;72.41;97952.22;5053925;28;20304;-61
2021/12/10 03:04:53;;;;;;;;;;;;;;;6.17;72.38;97947.84;5053743;28;19975;-60
2021/12/10 03:07:22;;;;;;;;;;;;;;;6.18;72.38;97952.13;5053786;28;19925;-61
2021/12/10 03:09:50;;;;;;;;;;;;;;;6.19;72.37;97946.78;5053621;28;19978;-61
2021/12/10 03:12:17;;;;;;;;;;;;;;;6.20;72.54;97948.47;5053450;28;19925;-62
2021/12/10 03:14:45;;;;;;;;;;;;;;;6.21;72.41;97944.09;5053460;28;19925;-62
2021/12/10 03:17:14;;;;;;;;;;;;;;;6.22;72.51;97938.75;5052376;28;20354;-61
2021/12/10 03:19:41;;;;;;;;;;;;;;;6.23;72.29;97936.97;5053183;28;19920;-61
2021/12/10 03:22:08;;;;;;;;;;;;;;;6.24;72.43;97930.78;5053328;28;19967;-60
2021/12/10 03:24:34;;;;;;;;;;;;;;;6.24;72.18;97928.16;5053199;28;19954;-61
2021/12/10 03:27:03;;;;;;;;;;;;;;;6.25;72.55;97920.22;5053176;28;19967;-60
2021/12/10 03:29:32;;;;;;;;;;;;;;;6.27;72.29;97920.13;5051658;28;20444;-62
2021/12/10 03:31:59;;;;;;;;;;;;;;;6.27;72.01;97919.31;5053444;28;19921;-62
2021/12/10 03:34:26;;;;;;;;;;;;;;;6.26;72.17;97915.84;5053110;28;20402;-62
2021/12/10 03:36:53;;;;;;;;;;;;;;;6.24;71.81;97910.72;5053096;28;19925;-61
2021/12/10 03:39:22;;;;;;;;;;;;;;;6.23;71.89;97909.06;5052699;28;20366;-61
2021/12/10 03:41:49;;;;;;;;;;;;;;;6.23;71.86;97908.22;5051945;28;20375;-62
2021/12/10 03:44:16;;;;;;;;;;;;;;;6.22;72.03;97909.16;5052993;28;20331;-61
2021/12/10 03:46:43;;;;;;;;;;;;;;;6.20;72.02;97911.88;5051905;28;19928;-62
2021/12/10 03:49:09;;;;;;;;;;;;;;;6.18;71.81;97905.09;5052561;28;19920;-61
2021/12/10 03:51:36;;;;;;;;;;;;;;;6.17;72.05;97906.03;5052999;28;19974;-61
2021/12/10 03:54:04;;;;;;;;;;;;;;;6.16;72.09;97918.25;5052563;28;19920;-61
2021/12/10 03:56:32;;;;;;;;;;;;;;;6.16;72.06;97920.06;5052929;28;19928;-62
2021/12/10 03:59:00;;;;;;;;;;;;;;;6.17;72.22;97921.72;5051550;28;19925;-60
2021/12/10 04:01:28;;;;;;;;;;;;;;;6.17;72.21;97919.09;5052495;28;19967;-61
2021/12/10 04:03:57;;;;;;;;;;;;;;;6.18;72.18;97928.59;5052447;28;19921;-62
2021/12/10 04:06:24;;;;;;;;;;;;;;;6.18;72.26;97923.38;5052529;28;20335;-60
2021/12/10 04:08:53;;;;;;;;;;;;;;;6.19;72.23;97911.97;5052557;28;19921;-61
2021/12/10 04:11:21;;;;;;;;;;;;;;;6.20;72.30;97911.06;5052069;28;20274;-61
2021/12/10 04:13:49;;;;;;;;;;;;;;;6.20;72.18;97906.66;5052317;28;19925;-60
2021/12/10 04:16:17;;;;;;;;;;;;;;;6.22;72.34;97899.56;5052229;28;19928;-62
2021/12/10 04:18:45;;;;;;;;;;;;;;;6.23;72.36;97903.84;5052183;28;19929;-62
2021/12/10 04:21:13;;;;;;;;;;;;;;;6.25;72.20;97906.34;5051807;28;20047;-61
2021/12/10 04:23:41;;;;;;;;;;;;;;;6.27;72.22;97906.25;5052338;28;20419;-61
2021/12/10 04:26:08;;;;;;;;;;;;;;;6.27;72.29;97904.44;5050950;28;20367;-61
2021/12/10 04:28:35;;;;;;;;;;;;;;;6.28;71.89;97894.84;5052192;28;19928;-60
2021/12/10 04:31:02;;;;;;;;;;;;;;;6.29;72.20;97893.91;5051757;28;19927;-61
2021/12/10 04:33:28;;;;;;;;;;;;;;;6.28;72.00;97893.06;5051946;28;20280;-60
2021/12/10 04:35:56;;;;;;;;;;;;;;;6.29;71.86;97883.44;5051736;28;20377;-61
2021/12/10 04:38:23;;;;;;;;;;;;;;;6.30;72.11;97882.50;5050933;28;19927;-61
2021/12/10 04:40:51;;;;;;;;;;;;;;;6.30;72.02;97872.91;5051624;28;19967;-60
2021/12/10 04:43:19;;;;;;;;;;;;;;;6.29;72.04;97860.78;5051907;28;19921;-61
2021/12/10 04:45:46;;;;;;;;;;;;;;;6.30;72.06;97865.06;5051518;28;19932;-61
2021/12/10 04:48:12;;;;;;;;;;;;;;;6.30;71.82;97857.22;5051522;28;19990;-62
2021/12/10 04:50:39;;;;;;;;;;;;;;;6.30;71.90;97854.59;5051715;28;19928;-62
2021/12/10 04:53:07;;;;;;;;;;;;;;;6.30;72.20;97849.38;5050402;28;20373;-60
2021/12/10 04:55:34;;;;;;;;;;;;;;;6.30;71.76;97835.47;5051503;28;19924;-61
2021/12/10 04:58:01;;;;;;;;;;;;;;;6.30;71.76;97838.06;5050517;28;19966;-59
2021/12/10 05:00:30;;;;;;;;;;;;;;;6.28;71.94;97822.50;5051244;28;19920;-60
2021/12/10 05:03:00;;;;;;;;;;;;;;;6.25;71.80;97814.91;5051308;28;19994;-60
2021/12/10 05:05:27;;;;;;;;;;;;;;;6.21;71.67;97814.25;5050068;28;20023;-61
2021/12/10 05:07:54;;;;;;;;;;;;;;;6.18;71.52;97821.50;5051708;28;19924;-61
2021/12/10 05:10:20;;;;;;;;;;;;;;;6.12;71.37;97818.38;5050989;28;20462;-61
2021/12/10 05:12:47;;;;;;;;;;;;;;;6.07;71.11;97817.88;5051267;28;19925;-61
2021/12/10 05:15:16;;;;;;;;;;;;;;;6.04;71.00;97817.22;5051039;28;19920;-60
2021/12/10 05:17:43;;;;;;;;;;;;;;;5.99;71.24;97809.69;5033654;28;19931;-63
2021/12/10 05:20:12;;;;;;;;;;;;;;;5.93;71.04;97797.91;5051084;28;20347;-60
2021/12/10 05:22:40;;;;;;;;;;;;;;;5.88;71.01;97784.34;5051235;28;19929;-61
2021/12/10 05:25:07;;;;;;;;;;;;;;;5.83;70.98;97791.66;5051223;28;19924;-61
2021/12/10 05:27:34;;;;;;;;;;;;;;;5.79;71.11;97787.59;5051089;28;19925;-60
2021/12/10 05:30:01;;;;;;;;;;;;;;;5.73;70.97;97787.03;5050838;28;20385;-64
2021/12/10 05:32:27;;;;;;;;;;;;;;;5.69;70.97;97776.94;5050976;28;19970;-62
2021/12/10 05:34:54;;;;;;;;;;;;;;;5.65;70.99;97768.50;5051267;28;19920;-62
2021/12/10 05:37:21;;;;;;;;;;;;;;;5.61;71.04;97767.03;5051164;28;19944;-62
2021/12/10 05:39:48;;;;;;;;;;;;;;;5.58;71.16;97762.81;5050667;28;19924;-60
2021/12/10 05:42:15;;;;;;;;;;;;;;;5.55;71.17;97754.38;5049503;28;19925;-61
2021/12/10 05:44:42;;;;;;;;;;;;;;;5.51;70.93;97748.56;5050617;28;20404;-61
2021/12/10 05:47:09;;;;;;;;;;;;;;;5.47;71.17;97753.13;5051027;28;19956;-60
2021/12/10 05:49:36;;;;;;;;;;;;;;;5.43;71.00;97756.91;5050455;28;20345;-60
2021/12/10 05:52:04;;;;;;;;;;;;;;;5.40;71.08;97756.25;5050817;28;19927;-60
2021/12/10 05:54:31;;;;;;;;;;;;;;;5.37;71.15;97751.25;5050848;28;19921;-61
2021/12/10 05:56:57;;;;;;;;;;;;;;;5.34;71.31;97752.28;5051417;28;19924;-64
2021/12/10 05:59:24;;;;;;;;;;;;;;;5.30;71.34;97749.06;5054918;28;19924;-61
2021/12/10 06:01:50;;;;;;;;;;;;;;;5.28;71.10;97750.13;5054994;28;19925;-61
2021/12/10 06:04:22;;;;;;;;;;;;;;;5.26;71.46;97742.38;5053581;28;19928;-61
2021/12/10 06:06:49;;;;;;;;;;;;;;;5.24;71.44;97740.81;5054879;28;19924;-60
2021/12/10 06:09:15;;;;;;;;;;;;;;;5.22;71.29;97736.56;5054559;28;19927;-62
2021/12/10 06:11:42;;;;;;;;;;;;;;;5.21;71.45;97741.88;5054510;28;19944;-61
2021/12/10 06:14:09;;;;;;;;;;;;;;;5.20;71.49;97745.44;5054761;28;19920;-61
2021/12/10 06:16:36;;;;;;;;;;;;;;;5.19;71.72;97738.50;5054620;28;19959;-60
2021/12/10 06:19:04;;;;;;;;;;;;;;;5.17;71.55;97738.66;5054652;28;20381;-61
2021/12/10 06:21:32;;;;;;;;;;;;;;;5.17;71.62;97743.00;5053192;28;19932;-61
2021/12/10 06:23:59;;;;;;;;;;;;;;;5.16;71.69;97743.97;5053454;28;20423;-61
2021/12/10 06:26:26;;;;;;;;;;;;;;;5.14;71.72;97733.63;5054566;28;20323;-62
2021/12/10 06:28:53;;;;;;;;;;;;;;;5.13;71.47;97731.97;5054447;28;20335;-61
2021/12/10 06:31:20;;;;;;;;;;;;;;;5.13;71.75;97731.13;5053943;28;19920;-63
2021/12/10 06:33:48;;;;;;;;;;;;;;;5.11;71.68;97732.97;5053366;28;19921;-60
2021/12/10 06:36:15;;;;;;;;;;;;;;;5.09;71.48;97733.09;5052967;28;19963;-62
2021/12/10 06:38:42;;;;;;;;;;;;;;;5.06;71.52;97723.72;5053971;28;19943;-61
2021/12/10 06:41:09;;;;;;;;;;;;;;;5.06;71.57;97723.72;5053835;28;19925;-60
2021/12/10 06:43:36;;;;;;;;;;;;;;;5.03;71.55;97729.13;5054127;28;20007;-61
2021/12/10 06:46:05;;;;;;;;;;;;;;;5.00;71.54;97723.28;5052853;28;19920;-62
2021/12/10 06:48:32;;;;;;;;;;;;;;;4.98;71.38;97732.97;5053866;28;19924;-62
2021/12/10 06:51:01;;;;;;;;;;;;;;;4.94;71.48;97721.94;5052176;28;19936;-62
2021/12/10 06:53:28;;;;;;;;;;;;;;;4.90;71.48;97715.25;5051564;28;19943;-61
2021/12/10 06:55:55;;;;;;;;;;;;;;;4.89;71.46;97716.16;5051650;28;20309;-61
2021/12/10 06:58:23;;;;;;;;;;;;;;;4.85;71.56;97701.69;5052504;28;19921;-61
2021/12/10 07:00:57;;;;;;;;;;;;;;;4.80;71.54;97708.06;5052392;28;19924;-60
2021/12/10 07:03:26;;;;;;;;;;;;;;;4.78;71.58;97709.06;5051107;28;19924;-61
2021/12/10 07:05:53;;;;;;;;;;;;;;;4.75;71.62;97709.28;5052229;28;19959;-60
2021/12/10 07:08:22;;;;;;;;;;;;;;;4.74;71.59;97705.00;5051974;28;19967;-61
2021/12/10 07:10:48;;;;;;;;;;;;;;;4.71;71.51;97703.41;5052105;28;19925;-61
2021/12/10 07:13:15;;;;;;;;;;;;;;;4.69;71.63;97702.69;5052292;28;19936;-63
2021/12/10 07:15:44;;;;;;;;;;;;;;;4.67;71.83;97696.75;5052007;28;20335;-61
2021/12/10 07:18:11;;;;;;;;;;;;;;;4.65;71.83;97699.47;5052331;28;19970;-60
2021/12/10 07:20:38;;;;;;;;;;;;;;;4.63;71.78;97706.53;5052457;28;19925;-61
2021/12/10 07:23:05;;;;;;;;;;;;;;;4.62;71.73;97704.03;5051852;28;19932;-62
2021/12/10 07:25:32;;;;;;;;;;;;;;;4.62;71.67;97704.03;5052151;28;20385;-61
2021/12/10 07:27:58;;;;;;;;;;;;;;;4.60;71.95;97700.72;5052156;28;19924;-61
2021/12/10 07:30:26;;;;;;;;;;;;;;;4.60;71.68;97700.72;5051694;28;19928;-61
2021/12/10 07:32:53;;;;;;;;;;;;;;;4.59;71.87;97707.69;5050448;28;20393;-62
2021/12/10 07:35:20;;;;;;;;;;;;;;;4.59;71.99;97704.25;5052105;28;19924;-62
2021/12/10 07:37:47;;;;;;;;;;;;;;;4.59;71.92;97699.03;5051877;28;19921;-61
2021/12/10 07:40:16;;;;;;;;;;;;;;;4.59;71.90;97699.84;5051635;28;19925;-61
2021/12/10 07:42:43;;;;;;;;;;;;;;;4.59;72.27;97697.25;5051830;28;19928;-62
2021/12/10 07:45:10;;;;;;;;;;;;;;;4.60;72.17;97693.69;5050676;28;19924;-62
2021/12/10 07:47:37;;;;;;;;;;;;;;;4.60;71.92;97690.28;5051688;28;19925;-61
2021/12/10 07:50:06;;;;;;;;;;;;;;;4.60;72.13;97685.06;5007711;28;1276199;-61
2021/12/10 07:52:34;;;;;;;;;;;;;;;4.61;72.10;97694.56;5051602;28;20336;-61
2021/12/10 07:55:03;;;;;;;;;;;;;;;4.61;72.02;97692.78;5052739;28;20381;-63
2021/12/10 07:57:30;;;;;;;;;;;;;;;4.63;72.06;97687.47;5084441;28;19924;-63
2021/12/10 07:59:57;;;;;;;;;;;;;;;4.63;72.15;97687.47;5052375;28;20392;-62
2021/12/10 08:02:23;;;;;;;;;;;;;;;4.63;71.90;97693.50;5052610;28;20357;-61
2021/12/10 08:04:50;;;;;;;;;;;;;;;4.64;71.82;97678.72;5052320;28;20376;-63
2021/12/10 08:07:17;;;;;;;;;;;;;;;4.63;71.98;97680.47;5051795;28;20358;-62
2021/12/10 08:09:44;;;;;;;;;;;;;;;4.63;71.93;97684.88;5052351;28;20369;-60
2021/12/10 08:12:11;;;;;;;;;;;;;;;4.63;71.97;97677.88;5052295;28;20332;-61
2021/12/10 08:14:38;;;;;;;;;;;;;;;4.63;72.16;97679.66;5052279;28;19920;-62
2021/12/10 08:17:04;;;;;;;;;;;;;;;4.63;72.04;97683.09;5052419;28;19929;-62
2021/12/10 08:19:31;;;;;;;;;;;;;;;4.64;72.16;97678.72;5051465;28;19932;-62
2021/12/10 08:21:58;;;;;;;;;;;;;;;4.64;72.17;97678.72;5052308;28;19921;-62
2021/12/10 08:24:25;;;;;;;;;;;;;;;4.65;72.11;97688.19;5052227;28;20331;-61
2021/12/10 08:26:51;;;;;;;;;;;;;;;4.65;72.05;97683.00;5051600;28;19930;-61
2021/12/10 08:29:20;;;;;;;;;;;;;;;4.66;72.07;97682.88;5051823;28;19920;-61
2021/12/10 08:31:47;;;;;;;;;;;;;;;4.67;72.16;97675.88;5052034;28;19929;-61
2021/12/10 08:34:14;;;;;;;;;;;;;;;4.68;71.90;97674.97;5051477;28;20375;-62
2021/12/10 08:36:40;;;;;;;;;;;;;;;4.71;72.13;97679.16;5050681;28;19920;-61
2021/12/10 08:39:08;;;;;;;;;;;;;;;4.71;72.26;97672.16;5051422;28;20372;-62
2021/12/10 08:41:35;;;;;;;;;;;;;;;4.73;72.13;97672.03;5051470;28;19924;-63
2021/12/10 08:44:02;;;;;;;;;;;;;;;4.75;72.26;97672.78;5051651;28;19925;-63
2021/12/10 08:46:33;;;;;;;;;;;;;;;4.76;72.57;97670.09;5051553;28;19921;-61
2021/12/10 08:49:00;;;;;;;;;;;;;;;4.79;72.37;97669.88;5051686;28;20365;-61
2021/12/10 08:51:32;;;;;;;;;;;;;;;4.81;72.44;97668.00;5051393;28;19925;-61
2021/12/10 08:54:00;;;;;;;;;;;;;;;4.83;72.35;97662.69;5031432;28;19928;-62
2021/12/10 08:56:27;;;;;;;;;;;;;;;4.87;72.36;97673.72;5031442;28;19933;-61
2021/12/10 08:58:54;;;;;;;;;;;;;;;4.89;72.22;97671.84;5050082;28;19925;-61
2021/12/10 09:01:22;;;;;;;;;;;;;;;4.92;72.28;97671.66;5050511;28;19921;-60
2021/12/10 09:03:51;;;;;;;;;;;;;;;4.94;72.42;97675.81;5050926;28;19932;-61
2021/12/10 09:06:21;;;;;;;;;;;;;;;4.97;72.54;97677.38;5049442;28;20518;-62
2021/12/10 09:08:48;;;;;;;;;;;;;;;5.00;72.32;97671.13;5051287;28;19924;-62
2021/12/10 09:11:15;;;;;;;;;;;;;;;5.03;72.44;97676.97;5050796;28;19925;-61
2021/12/10 09:13:52;;;;;;;;;;;;;;;5.06;72.26;97675.94;5050444;28;20062;-63
2021/12/10 09:16:24;;;;;;;;;;;;;;;5.08;72.18;97669.69;5051080;28;19967;-62
2021/12/10 09:18:52;;;;;;;;;;;;;;;5.13;72.32;97673.75;5051076;28;20335;-62
2021/12/10 09:21:19;;;;;;;;;;;;;;;5.15;72.16;97669.25;5050900;28;19924;-62
2021/12/10 09:23:47;;;;;;;;;;;;;;;5.18;72.28;97661.22;5051018;28;19990;-63
2021/12/10 09:26:19;;;;;;;;;;;;;;;5.22;72.28;97675.72;5049299;28;19920;-63
2021/12/10 09:28:47;;;;;;;;;;;;;;;5.25;72.43;97674.66;5049895;28;19979;-62
2021/12/10 09:31:14;;;;;;;;;;;;;;;5.29;72.64;97665.69;5047710;28;19928;-61
2021/12/10 09:33:42;;;;;;;;;;;;;;;5.32;72.45;97666.34;5049406;28;19932;-62
2021/12/10 09:36:09;;;;;;;;;;;;;;;5.37;72.32;97666.00;5048141;28;19928;-61
2021/12/10 09:38:36;;;;;;;;;;;;;;;5.40;72.43;97663.19;5049509;28;19921;-61
2021/12/10 09:41:04;;;;;;;;;;;;;;;5.44;72.39;97669.84;5049200;28;19921;-62
2021/12/10 09:43:32;;;;;;;;;;;;;;;5.48;72.51;97667.88;5049983;28;20327;-61
2021/12/10 09:45:59;;;;;;;;;;;;;;;5.53;72.21;97663.16;5050630;28;19936;-62
2021/12/10 09:48:26;;;;;;;;;;;;;;;5.57;72.42;97663.78;5051093;28;19974;-62
2021/12/10 09:50:55;;;;;;;;;;;;;;;5.59;72.26;97661.88;5050353;28;19986;-63
2021/12/10 09:53:24;;;;;;;;;;;;;;;5.65;72.15;97671.91;5050948;28;20003;-61
2021/12/10 09:55:51;;;;;;;;;;;;;;;5.69;72.22;97656.84;5050745;28;20004;-64
2021/12/10 09:58:18;;;;;;;;;;;;;;;5.74;72.49;97659.97;5050753;28;19925;-61
2021/12/10 10:00:47;;;;;;;;;;;;;;;5.79;72.21;97660.47;5049256;28;19975;-63
2021/12/10 10:03:16;;;;;;;;;;;;;;;5.83;72.46;97664.53;5050750;28;20019;-62
2021/12/10 10:05:45;;;;;;;;;;;;;;;5.89;72.25;97663.25;5050857;28;19917;-61
2021/12/10 10:08:14;;;;;;;;;;;;;;;5.94;72.54;97655.13;5049746;28;20508;-62
2021/12/10 10:10:42;;;;;;;;;;;;;;;5.98;72.27;97657.38;5049275;28;20041;-61
2021/12/10 10:13:10;;;;;;;;;;;;;;;6.05;72.45;97646.53;5050718;28;19921;-61
2021/12/10 10:15:39;;;;;;;;;;;;;;;6.09;72.12;97653.22;5049485;28;19928;-62
2021/12/10 10:18:07;;;;;;;;;;;;;;;6.12;72.36;97642.50;5050620;28;19924;-63
2021/12/10 10:20:35;;;;;;;;;;;;;;;6.17;72.54;97648.22;5050384;28;19929;-63
2021/12/10 10:23:02;;;;;;;;;;;;;;;6.20;72.53;97645.41;5082826;28;19932;-62
2021/12/10 10:25:29;;;;;;;;;;;;;;;6.24;72.38;97651.22;5050359;28;20442;-62
2021/12/10 10:27:56;;;;;;;;;;;;;;;6.25;71.88;97652.91;5049091;28;19920;-62
2021/12/10 10:30:28;;;;;;;;;;;;;;;6.29;72.00;97641.28;5050265;28;19928;-62
2021/12/10 10:32:56;;;;;;;;;;;;;;;6.32;72.12;97651.50;5049157;28;19928;-62
2021/12/10 10:35:27;;;;;;;;;;;;;;;6.34;72.18;97639.16;5049327;28;19924;-63
2021/12/10 10:37:54;;;;;;;;;;;;;;;6.37;71.91;97638.94;5050462;28;19921;-63
2021/12/10 10:40:24;;;;;;;;;;;;;;;6.42;71.97;97633.38;5049042;28;19975;-61
2021/12/10 10:42:52;;;;;;;;;;;;;;;6.45;72.23;97637.53;5051129;28;20365;-61
2021/12/10 10:45:21;;;;;;;;;;;;;;;6.48;71.83;97635.53;5054148;28;20369;-63
2021/12/10 10:47:48;;;;;;;;;;;;;;;6.53;72.38;97623.91;5052848;28;19987;-61
2021/12/10 10:50:34;;;;;;;;;;;;;;;6.57;72.04;97638.38;5054056;28;19921;-62
2021/12/10 10:53:05;;;;;;;;;;;;;;;6.60;72.34;97632.94;5052561;28;19939;-62
2021/12/10 10:55:33;;;;;;;;;;;;;;;6.64;72.21;97632.59;5053750;28;20591;-60
2021/12/10 10:58:03;;;;;;;;;;;;;;;6.69;72.16;97637.47;5053742;28;19924;-61
2021/12/10 11:00:50;;;;;;;;;;;;;;;6.74;72.13;97631.91;5053755;28;19921;-62
2021/12/10 11:03:40;;;;;;;;;;;;;;;6.83;72.21;97633.81;5052562;28;19928;-62
2021/12/10 11:06:15;;;;;;;;;;;;;;;6.93;72.43;97630.50;5053879;28;19925;-59
2021/12/10 11:08:49;;;;;;;;;;;;;;;7.08;72.86;97626.72;5052281;28;19920;-61
2021/12/10 11:11:18;;;;;;;;;;;;;;;7.30;73.48;97632.91;5053202;28;20345;-63
2021/12/10 11:13:51;;;;;;;;;;;;;;;7.60;74.12;97628.00;5053627;28;19929;-62
2021/12/10 11:16:20;;;;;;;;;;;;;;;7.99;74.53;97627.56;5053705;28;19924;-61
2021/12/10 11:18:46;;;;;;;;;;;;;;;8.46;75.19;97632.47;5052240;28;19977;-63
2021/12/10 11:21:13;;;;;;;;;;;;;;;8.99;75.96;97623.72;5053128;28;19920;-62
2021/12/10 11:23:42;;;;;;;;;;;;;;;9.58;76.59;97630.16;5053226;28;19921;-61
2021/12/10 11:26:09;;;;;;;;;;;;;;;10.23;76.56;97639.38;5051870;28;20363;-62
2021/12/10 11:28:38;;;;;;;;;;;;;;;10.88;77.33;97630.91;5052922;28;20438;-63
2021/12/10 11:31:08;;;;;;;;;;;;;;;11.59;77.65;97631.31;5053131;28;20007;-63
2021/12/10 11:33:37;;;;;;;;;;;;;;;12.32;77.69;97623.53;5053132;28;20262;-61
2021/12/10 11:36:06;;;;;;;;;;;;;;;13.07;77.61;97617.94;5053268;28;19921;-60
2021/12/10 11:38:33;;;;;;;;;;;;;;;13.81;77.35;97630.66;5052686;28;19928;-60
2021/12/10 11:41:00;;;;;;;;;;;;;;;14.51;76.78;97619.84;5051738;28;19924;-60
2021/12/10 11:46:47;;;;;;;;;;;;;;;15.82;74.42;97616.19;5053070;28;19925;-60
2021/12/10 11:49:16;;;;;;;;;;;;;;;16.39;72.63;97616.81;5051632;28;19920;-60
2021/12/10 11:51:48;;;;;;;;;;;;;;;16.83;71.79;97615.28;5052954;28;19920;-62
2021/12/10 11:54:17;;;;;;;;;;;;;;;17.23;70.46;97615.06;5051746;28;19925;-61
2021/12/10 11:56:46;;;;;;;;;;;;;;;17.56;69.65;97614.69;5052710;28;19921;-61
2021/12/10 11:59:15;;;;;;;;;;;;;;;17.82;67.79;97613.34;5051202;28;20020;-61
2021/12/10 12:01:44;;;;;;;;;;;;;;;18.04;67.50;97618.69;5052586;28;19936;-61
2021/12/10 12:04:18;;;;;;;;;;;;;;;18.23;65.78;97619.09;5052577;28;19921;-61
2021/12/10 12:06:49;;;;;;;;;;;;;;;18.42;66.48;97614.97;5052651;28;19982;-61
2021/12/10 12:09:31;;;;;;;;;;;;;;;18.61;66.12;97613.50;5052447;28;19932;-62
2021/12/10 12:12:09;;;;;;;;;;;;;;;18.80;66.14;97608.50;5052514;28;19924;-62
2021/12/10 12:14:47;;;;;;;;;;;;;;;18.94;63.82;97605.94;5052567;28;19925;-60
2021/12/10 12:17:28;;;;;;;;;;;;;;;19.05;62.86;97608.09;5051157;28;20274;-63
2021/12/10 12:19:54;;;;;;;;;;;;;;;19.18;62.22;97609.22;5052272;28;19929;-61
2021/12/10 12:25:32;;;;;;;;;;;;;;;19.14;60.90;97601.59;5041549;28;20369;-61
2021/12/10 12:28:07;;;;;;;;;;;;;;;18.96;60.65;97614.56;5052226;28;20032;-61
2021/12/10 12:31:23;;;;;;;;;;;;;;;18.71;60.93;97609.69;5052147;28;20005;-63
2021/12/10 12:33:50;;;;;;;;;;;;;;;18.35;60.18;97598.94;5055628;28;19946;-61
2021/12/10 12:36:17;;;;;;;;;;;;;;;18.02;59.89;97609.25;5051739;28;19921;-61
2021/12/10 12:38:46;;;;;;;;;;;;;;;17.68;59.92;97616.88;5051898;28;19920;-62
2021/12/10 12:41:37;;;;;;;;;;;;;;;17.36;59.93;97609.09;5051952;28;19974;-60
2021/12/10 12:44:23;;;;;;;;;;;;;;;17.15;60.98;97610.66;5050537;28;19920;-60
2021/12/10 12:47:13;;;;;;;;;;;;;;;17.02;63.11;97607.78;5050572;28;19975;-60
2021/12/10 12:49:48;;;;;;;;;;;;;;;16.98;61.87;97610.00;5051996;28;19921;-60
2021/12/10 12:52:18;;;;;;;;;;;;;;;16.93;60.81;97612.34;5051659;28;19965;-61
2021/12/10 12:55:03;;;;;;;;;;;;;;;16.86;61.96;97609.59;5051848;28;19954;-60
2021/12/10 12:57:36;;;;;;;;;;;;;;;16.69;60.81;97608.94;5051550;28;19924;-61
2021/12/10 13:00:28;;;;;;;;;;;;;;;16.39;60.53;97616.81;5051782;28;19925;-61
2021/12/10 13:02:57;;;;;;;;;;;;;;;16.07;58.47;97618.72;5051565;28;19982;-60
2021/12/10 13:05:43;;;;;;;;;;;;;;;15.72;60.08;97621.69;5051129;28;19925;-62
2021/12/10 13:08:22;;;;;;;;;;;;;;;15.31;59.48;97620.88;5051355;28;19986;-61
2021/12/10 13:11:22;;;;;;;;;;;;;;;14.94;61.30;97615.19;5051275;28;19928;-60
2021/12/10 13:13:53;;;;;;;;;;;;;;;14.56;60.58;97614.88;5051441;28;19939;-61
2021/12/10 13:16:31;;;;;;;;;;;;;;;14.19;60.70;97617.00;5049794;28;19921;-61
2021/12/10 13:18:59;;;;;;;;;;;;;;;13.80;60.95;97629.00;5051363;28;19968;-61
2021/12/10 13:21:47;;;;;;;;;;;;;;;13.41;61.48;97622.38;5050361;28;19970;-60